Time;durP1;ratioP1;P1;durP2;ratioP2;P2;SDS_P1;SDS_P2;PMS_P1;PMS_P2;Temp;Humidity;BMP_temperature;BMP_pressure;BME280_temperature;BME280_humidity;BME280_pressure;Samples;Min_cycle;Max_cycle;Signal;HPM_P1;HPM_P2
2022/07/25 00:01:16;;;;;;;;;;;22.40;99.90;;;21.46;77.27;95578.22;10431778;28;1911;-69
2022/07/25 00:06:22;;;;;;;;;;;22.30;99.90;;;21.35;78.14;95571.66;10420795;28;2108;-69
2022/07/25 00:11:26;;;;;;;;;;;22.30;99.90;;;21.21;79.04;95577.47;10408827;28;2118;-70
2022/07/25 00:16:29;;;;;;;;;;;22.20;99.90;;;21.22;79.10;95570.06;10417406;28;1860;-69
2022/07/25 00:21:32;;;;;;;;;;;22.10;99.90;;;21.15;80.18;95562.47;10413645;28;1898;-70
2022/07/25 00:26:35;;;;;;;;;;;22.00;99.90;;;21.10;80.32;95562.69;10426828;28;1873;-74
2022/07/25 00:31:42;;;;;;;;;;;22.00;99.90;;;20.95;81.39;95564.22;10411731;28;2065;-73
2022/07/25 00:36:45;;;;;;;;;;;21.90;99.90;;;21.00;81.15;95550.31;10412954;28;1850;-70
2022/07/25 00:41:49;;;;;;;;;;;21.90;99.90;;;21.08;81.23;95545.06;10405483;28;1970;-70
2022/07/25 00:46:52;;;;;;;;;;;21.90;99.90;;;20.91;81.79;95541.44;10415410;28;1867;-70
2022/07/25 00:51:55;;;;;;;;;;;21.90;99.90;;;20.85;82.82;95548.28;10430778;28;1911;-70
2022/07/25 00:56:59;;;;;;;;;;;21.80;99.90;;;20.84;83.05;95545.91;10426803;28;2027;-70
2022/07/25 01:02:03;;;;;;;;;;;21.70;99.90;;;20.76;83.78;95542.19;10410545;28;2024;-70
2022/07/25 01:07:07;;;;;;;;;;;21.70;99.90;;;20.59;84.85;95543.22;10413985;28;1958;-70
2022/07/25 01:12:11;;;;;;;;;;;21.60;99.90;;;20.56;85.93;95540.38;10408460;28;1964;-70
2022/07/25 01:17:17;;;;;;;;;;;21.50;99.90;;;20.45;86.66;95542.78;10414426;28;2132;-71
2022/07/25 01:22:41;;;;;;;;;;;21.50;99.90;;;20.45;87.19;95534.59;10405363;28;1969;-70
2022/07/25 01:27:52;;;;;;;;;;;21.40;99.90;;;20.42;87.58;95538.78;10415584;28;2093;-73
2022/07/25 01:33:06;;;;;;;;;;;21.40;99.90;;;20.36;88.17;95529.22;10418411;28;2025;-72
2022/07/25 01:38:10;;;;;;;;;;;21.30;99.90;;;20.31;88.74;95521.25;10413914;28;1875;-70
2022/07/25 01:43:14;;;;;;;;;;;21.30;99.90;;;20.26;89.04;95521.47;10417261;28;1976;-70
2022/07/25 01:48:17;;;;;;;;;;;21.20;99.90;;;20.26;89.49;95516.03;10409851;28;1971;-70
2022/07/25 01:53:21;;;;;;;;;;;21.20;99.90;;;20.24;89.89;95512.84;10410147;28;1997;-70
2022/07/25 01:58:26;;;;;;;;;;;21.20;99.90;;;20.24;89.78;95510.91;10412635;28;1879;-70
2022/07/25 02:03:32;;;;;;;;;;;21.20;99.90;;;20.13;90.68;95511.69;10407765;28;2083;-70
2022/07/25 02:08:36;;;;;;;;;;;21.10;99.90;;;20.02;91.70;95514.06;10410215;28;2122;-70
2022/07/25 02:13:39;;;;;;;;;;;21.00;99.90;;;20.04;92.32;95503.63;10427061;28;1924;-70
2022/07/25 02:18:42;;;;;;;;;;;20.90;99.90;;;20.04;93.18;95502.81;10410195;28;2067;-70
2022/07/25 02:23:45;;;;;;;;;;;20.90;99.90;;;19.94;93.57;95498.63;10412031;28;2163;-70
2022/07/25 02:28:49;;;;;;;;;;;20.90;99.90;;;19.98;93.90;95491.34;10421634;28;1898;-69
2022/07/25 02:33:52;;;;;;;;;;;20.90;99.90;;;19.88;94.65;95489.84;10424878;28;1828;-70
2022/07/25 02:38:56;;;;;;;;;;;20.90;99.90;;;19.87;94.78;95488.28;10413255;28;2120;-70
2022/07/25 02:43:59;;;;;;;;;;;20.90;99.90;;;19.81;95.09;95486.91;10419791;28;1996;-70
2022/07/25 02:49:02;;;;;;;;;;;20.80;99.90;;;19.74;96.16;95486.66;10420214;28;1627;-70
2022/07/25 02:54:06;;;;;;;;;;;20.70;99.90;;;19.69;96.43;95481.44;10420526;28;1852;-71
2022/07/25 02:59:09;;;;;;;;;;;20.60;99.90;;;19.69;96.88;95487.66;10415943;28;1804;-71
2022/07/25 03:04:12;;;;;;;;;;;20.60;99.90;;;19.70;96.71;95491.19;10416828;28;1922;-72
2022/07/25 03:09:17;;;;;;;;;;;20.60;99.90;;;19.64;97.11;95490.59;10414752;28;2010;-71
2022/07/25 03:14:20;;;;;;;;;;;20.60;99.90;;;19.66;97.17;95487.56;10419938;28;1871;-71
2022/07/25 03:19:23;;;;;;;;;;;20.60;99.90;;;19.61;97.31;95482.31;10420317;28;1864;-70
2022/07/25 03:24:27;;;;;;;;;;;20.50;99.90;;;19.52;97.47;95492.47;10418397;28;2070;-69
2022/07/25 03:29:29;;;;;;;;;;;20.50;99.90;;;19.50;97.57;95492.03;10414276;28;1867;-70
2022/07/25 03:34:32;;;;;;;;;;;20.40;99.90;;;19.52;97.71;95492.47;10419156;28;1800;-70
2022/07/25 03:39:36;;;;;;;;;;;20.50;99.90;;;19.53;97.67;95489.44;10428444;28;1852;-70
2022/07/25 03:44:39;;;;;;;;;;;20.50;99.90;;;19.61;96.95;95476.88;10414018;28;1959;-70
2022/07/25 03:49:43;;;;;;;;;;;20.50;99.90;;;19.73;96.66;95476.91;10422205;28;1812;-70
2022/07/25 03:54:46;;;;;;;;;;;20.50;99.90;;;19.77;95.91;95474.28;10416609;28;1995;-69
2022/07/25 03:59:49;;;;;;;;;;;20.50;99.90;;;19.85;95.52;95474.19;10411892;28;1974;-69
2022/07/25 04:04:53;;;;;;;;;;;20.70;99.90;;;20.05;94.02;95479.88;10414952;28;1918;-70
2022/07/25 04:09:56;;;;;;;;;;;20.70;99.90;;;20.13;93.05;95479.75;10417767;28;1891;-70
2022/07/25 04:14:59;;;;;;;;;;;20.90;99.90;;;20.36;92.00;95473.81;10417730;28;1784;-70
2022/07/25 04:20:02;;;;;;;;;;;21.00;99.90;;;20.56;89.85;95472.13;10414880;28;2022;-70
2022/07/25 04:25:08;;;;;;;;;;;21.20;99.90;;;20.76;88.67;95462.97;10417849;28;2062;-70
2022/07/25 04:30:11;;;;;;;;;;;21.30;99.90;;;21.04;86.60;95463.75;10404070;28;1989;-71
2022/07/25 04:35:25;;;;;;;;;;;21.50;99.90;;;21.29;84.83;95458.22;10413912;28;1835;-70
2022/07/25 04:40:28;;;;;;;;;;;21.80;99.90;;;21.52;83.39;95451.03;10412490;28;1944;-71
2022/07/25 04:45:32;;;;;;;;;;;22.00;99.90;;;21.86;81.49;95448.75;10413226;28;2171;-70
2022/07/25 04:50:37;;;;;;;;;;;22.20;99.90;;;22.09;79.64;95452.47;10414031;28;1830;-70
2022/07/25 04:55:40;;;;;;;;;;;22.60;99.90;;;22.29;78.52;95447.06;10411467;28;1891;-70
2022/07/25 05:00:43;;;;;;;;;;;22.70;99.90;;;22.47;77.07;95445.50;10414692;28;1864;-70
2022/07/25 05:05:47;;;;;;;;;;;23.00;99.90;;;22.81;75.57;95438.41;10414688;28;1989;-70
2022/07/25 05:10:50;;;;;;;;;;;23.20;99.90;;;23.00;74.41;95443.13;10411953;28;1843;-70
2022/07/25 05:15:55;;;;;;;;;;;23.40;99.90;;;23.36;72.45;95449.31;10409277;28;2038;-70
2022/07/25 05:20:58;;;;;;;;;;;23.70;99.90;;;23.56;71.09;95445.38;10414316;28;1920;-70
2022/07/25 05:26:02;;;;;;;;;;;24.00;99.90;;;23.55;70.81;95435.56;10414262;28;1930;-71
2022/07/25 05:31:05;;;;;;;;;;;24.20;99.90;;;23.88;69.45;95434.97;10417236;28;1812;-70
2022/07/25 05:36:08;;;;;;;;;;;24.40;99.90;;;24.04;68.71;95437.56;10412022;28;1890;-69
2022/07/25 05:41:11;;;;;;;;;;;24.50;99.90;;;24.41;66.61;95434.22;10406067;28;1998;-70
2022/07/25 05:46:14;;;;;;;;;;;24.70;99.90;;;25.02;63.61;95435.84;10411810;28;1882;-70
2022/07/25 05:51:18;;;;;;;;;;;25.10;99.90;;;25.04;63.46;95433.50;10406482;28;1846;-71
2022/07/25 05:56:21;;;;;;;;;;;25.30;99.90;;;25.21;62.50;95430.19;10408807;28;1846;-70
2022/07/25 06:01:24;;;;;;;;;;;25.60;99.90;;;25.69;61.07;95427.53;10409897;28;1935;-71
2022/07/25 06:06:27;;;;;;;;;;;25.80;99.90;;;25.68;59.98;95428.69;10403291;28;1894;-70
2022/07/25 06:11:30;;;;;;;;;;;26.00;99.90;;;25.88;58.58;95421.81;10407756;28;2049;-68
2022/07/25 06:16:33;;;;;;;;;;;26.10;99.90;;;26.05;57.78;95422.38;10406562;28;2132;-71
2022/07/25 06:21:37;;;;;;;;;;;26.40;99.90;;;26.38;56.48;95426.91;10409275;28;1912;-69
2022/07/25 06:26:40;;;;;;;;;;;26.60;99.90;;;26.66;55.87;95423.59;10411482;28;1847;-73
2022/07/25 06:31:44;;;;;;;;;;;26.80;99.90;;;26.58;56.46;95421.94;10411511;28;1902;-70
2022/07/25 06:36:49;;;;;;;;;;;27.00;99.90;;;26.82;55.09;95412.22;10413766;28;1856;-68
2022/07/25 06:41:52;;;;;;;;;;;27.30;99.90;;;27.01;53.96;95409.16;10402498;28;1914;-70
2022/07/25 06:46:55;;;;;;;;;;;27.30;99.90;;;27.39;51.82;95417.97;10406714;28;2082;-72
2022/07/25 06:51:58;;;;;;;;;;;27.50;99.90;;;27.44;50.86;95403.81;10402505;28;1881;-71
2022/07/25 06:57:01;;;;;;;;;;;27.70;99.90;;;27.62;50.24;95409.38;10400752;28;1835;-71
2022/07/25 07:02:04;;;;;;;;;;;27.70;99.90;;;27.91;49.90;95405.44;10407608;28;1918;-71
2022/07/25 07:07:08;;;;;;;;;;;;;;;28.18;48.87;95397.53;10400234;28;1830;-70
2022/07/25 07:12:12;;;;;;;;;;;;;;;28.29;48.59;95395.56;10404425;28;2069;-73
2022/07/25 07:17:15;;;;;;;;;;;;;;;28.37;48.29;95382.53;10416333;28;2040;-70
2022/07/25 07:22:19;;;;;;;;;;;;;;;28.79;47.20;95391.91;10414831;28;1910;-73
2022/07/25 07:27:24;;;;;;;;;;;;;;;29.04;45.87;95386.31;10420755;28;1854;-70
2022/07/25 07:32:28;;;;;;;;;;;;;;;29.10;45.58;95381.16;10410907;28;2049;-71
2022/07/25 07:37:31;;;;;;;;;;;;;;;29.38;44.85;95380.97;10406886;28;1983;-71
2022/07/25 07:42:42;;;;;;;;;;;;;;;29.65;44.64;95380.44;10419423;28;1906;-71
2022/07/25 07:47:47;;;;;;;;;;;;;;;29.54;45.06;95375.78;10417360;28;1797;-73
2022/07/25 07:52:50;;;;;;;;;;;;;;;29.67;44.83;95370.53;10417387;28;1830;-73
2022/07/25 07:57:54;;;;;;;;;;;;;;;29.74;45.05;95373.25;10418033;28;1931;-73
2022/07/25 08:02:58;;;;;;;;;;;;;;;30.04;44.00;95378.16;10410795;28;2187;-72
2022/07/25 08:08:02;;;;;;;;;;;;;;;29.58;44.49;95382.09;10407875;28;1881;-72
2022/07/25 08:13:06;;;;;;;;;;;;;;;29.65;46.02;95375.72;10412801;28;1869;-74
2022/07/25 08:18:10;;;;;;;;;;;;;;;29.99;43.89;95370.28;10411677;28;1861;-74
2022/07/25 08:23:19;;;;;;;;;;;;;;;30.29;43.69;95369.66;10418613;28;1906;-72
2022/07/25 08:28:23;;;;;;;;;;;;;;;30.17;44.02;95355.53;10412889;28;1860;-74
2022/07/25 08:33:27;;;;;;;;;;;;;;;30.03;42.91;95351.66;10404318;28;1847;-72
2022/07/25 08:38:30;;;;;;;;;;;;;;;30.46;42.51;95342.91;10410139;28;1826;-72
2022/07/25 08:43:35;;;;;;;;;;;;;;;30.63;41.48;95341.94;10409375;28;1922;-72
2022/07/25 08:48:39;;;;;;;;;;;;;;;31.09;40.65;95337.81;10407104;28;1879;-72
2022/07/25 08:53:44;;;;;;;;;;;;;;;31.27;40.54;95336.81;10411899;28;1857;-74
2022/07/25 08:58:51;;;;;;;;;;;;;;;30.86;41.55;95340.53;10410714;28;1798;-72
2022/07/25 09:03:54;;;;;;;;;;;;;;;31.13;40.45;95327.47;10408626;28;1890;-72
2022/07/25 09:08:59;;;;;;;;;;;;;;;31.40;39.62;95332.28;10410786;28;2219;-74
2022/07/25 09:14:03;;;;;;;;;;;;;;;31.70;39.26;95326.66;10414421;28;2020;-72
2022/07/25 09:19:09;;;;;;;;;;;;;;;31.37;39.60;95325.56;10410765;28;1869;-71
2022/07/25 09:24:14;;;;;;;;;;;;;;;31.54;39.12;95323.72;10414190;28;1915;-71
2022/07/25 09:29:18;;;;;;;;;;;;;;;31.64;38.15;95320.00;10405765;28;1841;-71
2022/07/25 09:34:21;;;;;;;;;;;;;;;31.85;36.86;95316.09;10411417;28;1823;-68
2022/07/25 09:39:27;;;;;;;;;;;;;;;31.76;37.86;95318.63;10402226;28;1774;-69
2022/07/25 09:44:31;;;;;;;;;;;;;;;31.77;38.25;95322.97;10414314;28;1975;-71
2022/07/25 09:49:34;;;;;;;;;;;;;;;31.92;36.96;95317.97;10406151;28;1812;-70
2022/07/25 09:54:39;;;;;;;;;;;;;;;31.70;37.86;95311.97;10408391;28;1974;-70
2022/07/25 09:59:44;;;;;;;;;;;;;;;31.65;37.09;95304.88;10409797;28;2132;-70
2022/07/25 10:04:48;;;;;;;;;;;;;;;31.96;36.71;95299.25;10404172;28;1975;-70
2022/07/25 10:09:51;;;;;;;;;;;;;;;31.73;37.44;95309.13;10406892;28;1805;-70
2022/07/25 10:14:55;;;;;;;;;;;;;;;32.15;35.29;95292.94;10405738;28;1789;-70
2022/07/25 10:20:00;;;;;;;;;;;;;;;32.22;34.40;95297.59;10410482;28;1898;-71
2022/07/25 10:25:04;;;;;;;;;;;;;;;32.21;34.17;95287.69;10411468;28;1922;-71
2022/07/25 10:30:07;;;;;;;;;;;;;;;32.51;34.11;95275.59;10407866;28;1832;-70
2022/07/25 10:35:11;;;;;;;;;;;;;;;32.41;33.86;95284.94;10400542;28;1881;-73
2022/07/25 10:40:14;;;;;;;;;;;;;;;32.40;33.68;95269.47;10406401;28;1815;-73
2022/07/25 10:45:18;;;;;;;;;;;;;;;32.82;32.34;95262.22;10412374;28;1902;-73
2022/07/25 10:50:23;;;;;;;;;;;;;;;33.08;32.60;95266.84;10408571;28;1840;-74
2022/07/25 10:55:47;;;;;;;;;;;34.70;85.80;;;33.84;31.03;95251.91;10416690;28;1821;-71
2022/07/25 11:01:07;;;;;;;;;;;35.20;99.90;;;34.73;29.99;95249.50;10429930;28;1707;-72
2022/07/25 11:06:11;;;;;;;;;;;36.40;82.90;;;35.26;29.67;95244.34;10414479;28;1922;-73
2022/07/25 11:11:14;;;;;;;;;;;36.90;81.40;;;35.33;29.08;95238.53;10416015;28;1847;-74
2022/07/25 11:16:17;;;;;;;;;;;37.40;80.00;;;35.45;26.53;95242.56;10410519;28;1862;-73
2022/07/25 11:21:20;;;;;;;;;;;37.70;75.20;;;35.47;26.29;95229.69;10412433;28;1862;-73
2022/07/25 11:26:24;;;;;;;;;;;37.50;74.40;;;35.35;25.82;95247.22;10415871;28;1906;-72
2022/07/25 11:31:28;;;;;;;;;;;37.60;72.80;;;35.32;26.22;95230.59;10418400;28;1478;-73
2022/07/25 11:36:32;;;;;;;;;;;37.20;73.00;;;34.56;26.07;95225.72;10415286;28;2357;-72
2022/07/25 11:41:36;;;;;;;;;;;36.80;71.50;;;34.39;26.83;95224.94;10410134;28;1533;-72
2022/07/25 11:46:39;;;;;;;;;;;35.90;72.30;;;33.91;26.75;95217.47;10414153;28;1942;-71
2022/07/25 11:51:42;;;;;;;;;;;35.30;72.40;;;33.87;26.20;95206.44;10420209;28;1440;-73
2022/07/25 11:56:46;;;;;;;;;;;34.80;72.10;;;34.02;26.63;95204.06;10420650;28;1584;-73
2022/07/25 12:01:49;;;;;;;;;;;34.70;72.80;;;33.89;25.50;95190.81;10425285;28;1546;-72
2022/07/25 12:06:52;;;;;;;;;;;34.60;70.30;;;34.03;26.74;95205.63;10413180;28;1975;-73
2022/07/25 12:11:55;;;;;;;;;;;34.70;71.60;;;34.17;25.65;95196.91;10413401;28;1884;-73
2022/07/25 12:16:59;;;;;;;;;;;34.80;69.30;;;34.31;24.97;95195.69;10408607;28;1841;-72
2022/07/25 12:22:02;;;;;;;;;;;34.90;69.00;;;34.21;24.37;95197.56;10414208;28;1862;-70
2022/07/25 12:27:05;;;;;;;;;;;34.90;68.00;;;34.16;24.47;95178.56;10410333;28;2011;-72
2022/07/25 12:32:09;;;;;;;;;;;34.90;68.50;;;34.52;25.42;95185.94;10412423;28;1817;-71
2022/07/25 12:37:12;;;;;;;;;;;35.30;69.80;;;34.28;24.80;95177.03;10413172;28;1818;-73
2022/07/25 12:42:15;;;;;;;;;;;35.00;68.60;;;34.37;25.38;95175.19;10405869;28;1834;-74
2022/07/25 12:47:19;;;;;;;;;;;35.10;69.30;;;34.27;24.96;95176.25;10417955;28;1975;-74
2022/07/25 12:52:22;;;;;;;;;;;35.10;69.00;;;34.23;25.24;95169.22;10413718;28;1888;-72
2022/07/25 12:57:26;;;;;;;;;;;35.00;68.90;;;34.31;25.95;95163.00;10409324;28;1888;-74
2022/07/25 13:02:28;;;;;;;;;;;35.10;70.00;;;34.12;26.44;95142.44;10406713;28;2147;-71
2022/07/25 13:07:31;;;;;;;;;;;35.10;73.20;;;34.72;25.34;95152.25;10410284;28;1910;-71
2022/07/25 13:12:35;;;;;;;;;;;35.30;69.60;;;34.91;25.03;95143.66;10403114;28;2314;-71
2022/07/25 13:17:39;;;;;;;;;;;35.40;73.10;;;34.66;25.04;95138.06;10419353;28;1852;-70
2022/07/25 13:22:42;;;;;;;;;;;35.40;73.10;;;34.41;24.37;95153.53;10405802;28;1827;-70
2022/07/25 13:27:45;;;;;;;;;;;35.20;72.40;;;34.52;24.74;95130.13;10414226;28;1926;-71
2022/07/25 13:32:49;;;;;;;;;;;35.20;73.10;;;34.80;24.43;95134.84;10408628;28;1910;-70
2022/07/25 13:37:52;;;;;;;;;;;35.40;72.90;;;35.07;23.83;95119.66;10407354;28;1960;-67
2022/07/25 13:42:56;;;;;;;;;;;35.60;72.00;;;35.28;23.54;95118.94;10415298;28;1882;-70
2022/07/25 13:47:59;;;;;;;;;;;35.90;71.80;;;35.41;22.38;95133.66;10409306;28;1957;-75
2022/07/25 13:53:23;;;;;;;;;;;36.00;70.90;;;35.19;22.62;95116.84;10408712;28;1891;-68
2022/07/25 13:58:31;;;;;;;;;;;35.90;70.30;;;35.51;22.17;95114.22;10406631;28;1876;-71
2022/07/25 14:03:35;;;;;;;;;;;36.00;70.60;;;35.20;22.43;95120.44;10401399;28;1907;-71
2022/07/25 14:08:38;;;;;;;;;;;35.90;69.00;;;35.03;23.22;95102.25;10408480;28;1962;-71
2022/07/25 14:13:42;;;;;;;;;;;35.80;69.90;;;35.26;22.89;95095.50;10417695;28;2187;-70
2022/07/25 14:18:45;;;;;;;;;;;35.80;69.60;;;34.96;21.32;95089.28;10400446;28;2108;-70
2022/07/25 14:23:48;;;;;;;;;;;35.60;67.90;;;34.67;21.76;95084.59;10416884;28;2223;-70
2022/07/25 14:28:51;;;;;;;;;;;35.40;68.30;;;34.67;22.41;95083.81;10423213;28;1616;-69
2022/07/25 14:33:53;;;;;;;;;;;35.30;78.10;;;34.86;22.97;95068.81;10419032;28;1854;-69
2022/07/25 14:38:57;;;;;;;;;;;35.40;76.30;;;34.98;21.58;95084.03;10412898;28;1860;-71
2022/07/25 14:44:03;;;;;;;;;;;35.60;76.10;;;35.08;22.10;95065.38;10418111;28;1964;-70
2022/07/25 14:49:07;;;;;;;;;;;35.60;74.00;;;35.00;22.57;95055.69;10412141;28;1794;-69
2022/07/25 14:54:10;;;;;;;;;;;35.70;71.80;;;35.19;21.74;95057.41;10421020;28;1827;-71
2022/07/25 14:59:13;;;;;;;;;;;35.80;69.20;;;35.20;21.16;95051.38;10410066;28;1844;-69
2022/07/25 15:04:18;;;;;;;;;;;35.80;68.30;;;35.05;21.45;95055.09;10415414;28;1977;-71
2022/07/25 15:09:21;;;;;;;;;;;35.70;67.90;;;35.03;21.58;95046.38;10408234;28;1872;-70
2022/07/25 15:14:25;;;;;;;;;;;35.70;67.40;;;35.00;21.42;95050.09;10407929;28;1958;-70
2022/07/25 15:19:27;;;;;;;;;;;35.80;66.80;;;34.89;21.64;95031.63;10410081;28;1836;-70
2022/07/25 15:24:31;;;;;;;;;;;35.60;66.90;;;34.81;20.65;95021.94;10414118;28;1931;-69
2022/07/25 15:29:54;;;;;;;;;;;35.50;65.40;;;35.22;19.38;95026.53;10405973;28;1816;-70
2022/07/25 15:34:58;;;;;;;;;;;35.70;63.60;;;35.15;18.45;95015.63;10416020;28;1753;-69
2022/07/25 15:40:02;;;;;;;;;;;35.80;62.50;;;34.91;19.36;95009.63;10418173;28;1837;-69
2022/07/25 15:45:05;;;;;;;;;;;35.70;61.00;;;34.90;19.18;95004.50;10411937;28;1965;-70
2022/07/25 15:50:29;;;;;;;;;;;35.50;61.20;;;34.83;17.46;94999.94;10420891;28;1741;-70
2022/07/25 15:55:32;;;;;;;;;;;35.40;59.10;;;34.68;17.43;94990.50;10422119;28;1849;-69
2022/07/25 16:00:36;;;;;;;;;;;35.40;58.70;;;34.72;18.41;94985.56;10412964;28;1824;-71
2022/07/25 16:05:39;;;;;;;;;;;35.30;59.20;;;34.52;18.38;94980.22;10416311;28;1914;-71
2022/07/25 16:10:42;;;;;;;;;;;35.10;59.40;;;34.20;19.30;94978.44;10411025;28;1776;-74
2022/07/25 16:15:46;;;;;;;;;;;34.90;59.40;;;34.06;20.08;94971.31;10415575;28;1789;-70
2022/07/25 16:20:50;;;;;;;;;;;34.80;60.50;;;34.08;20.66;94973.66;10416219;28;1683;-70
2022/07/25 16:25:53;;;;;;;;;;;34.70;61.00;;;34.08;21.01;94977.22;10411957;28;1910;-73
2022/07/25 16:30:56;;;;;;;;;;;34.70;61.90;;;33.75;21.80;94968.25;10406958;28;1929;-69
2022/07/25 16:36:00;;;;;;;;;;;34.60;62.40;;;33.70;22.84;94963.22;10410140;28;1882;-70
2022/07/25 16:41:03;;;;;;;;;;;34.40;63.50;;;33.44;23.25;94956.03;10411194;28;1939;-71
2022/07/25 16:46:07;;;;;;;;;;;34.20;64.00;;;33.45;23.44;94954.81;10414599;28;2032;-71
2022/07/25 16:51:11;;;;;;;;;;;34.10;64.40;;;33.29;23.92;94953.63;10407496;28;1832;-70
2022/07/25 16:56:14;;;;;;;;;;;33.90;65.00;;;33.23;24.61;94955.38;10414213;28;1882;-70
2022/07/25 17:01:17;;;;;;;;;;;33.80;65.70;;;33.12;25.15;94949.31;10420746;28;1805;-70
2022/07/25 17:06:21;;;;;;;;;;;33.80;66.50;;;32.97;25.76;94948.16;10415110;28;1914;-73
2022/07/25 17:11:25;;;;;;;;;;;33.60;67.50;;;32.94;26.08;94949.03;10409102;28;1778;-71
2022/07/25 17:16:28;;;;;;;;;;;33.50;68.00;;;32.72;26.38;94949.56;10415125;28;1842;-70
2022/07/25 17:21:31;;;;;;;;;;;33.40;68.40;;;32.61;26.88;94964.97;10402291;28;1903;-71
2022/07/25 17:26:35;;;;;;;;;;;33.10;69.10;;;32.77;27.12;94962.97;10410595;28;1978;-71
2022/07/25 17:31:39;;;;;;;;;;;33.30;69.10;;;32.74;27.35;94968.63;10413212;28;1844;-68
2022/07/25 17:36:42;;;;;;;;;;;33.30;69.70;;;32.58;27.69;94960.31;10409965;28;1809;-69
2022/07/25 17:41:46;;;;;;;;;;;33.10;69.90;;;32.57;27.92;94953.16;10406399;28;2151;-70
2022/07/25 17:46:50;;;;;;;;;;;33.00;70.40;;;32.66;28.09;94972.81;10425678;28;1914;-70
2022/07/25 17:51:53;;;;;;;;;;;33.10;70.70;;;32.65;28.23;94965.69;10408634;28;1882;-69
2022/07/25 17:56:58;;;;;;;;;;;33.10;70.70;;;32.49;28.48;94969.25;10408988;28;2053;-70
2022/07/25 18:02:01;;;;;;;;;;;33.10;71.00;;;32.45;28.49;94969.34;10416689;28;1806;-71
2022/07/25 18:07:04;;;;;;;;;;;32.90;70.60;;;32.14;29.07;94982.78;10410352;28;1981;-70
2022/07/25 18:12:07;;;;;;;;;;;32.80;71.10;;;31.68;29.82;95000.41;10417244;28;1814;-71
2022/07/25 18:17:10;;;;;;;;;;;32.50;72.10;;;30.61;32.67;95028.16;10431245;28;1868;-71
2022/07/25 18:22:13;;;;;;;;;;;31.80;73.70;;;30.22;33.56;95037.09;10409945;28;1778;-69
2022/07/25 18:27:16;;;;;;;;;;;31.10;75.20;;;29.70;34.36;95053.19;10413253;28;1906;-71
2022/07/25 18:32:19;;;;;;;;;;;30.60;75.30;;;29.35;34.91;95071.75;10413038;28;1848;-71
2022/07/25 18:37:22;;;;;;;;;;;30.30;76.50;;;29.17;35.55;95085.00;10411925;28;1865;-71
2022/07/25 18:42:26;;;;;;;;;;;29.90;76.70;;;28.95;36.13;95076.91;10409954;28;1870;-71
2022/07/25 18:47:33;;;;;;;;;;;;;;;28.62;36.95;95080.28;10405639;28;2041;-70
2022/07/25 18:52:37;;;;;;;;;;;29.90;99.90;;;28.45;37.43;95073.72;10407919;28;1897;-69
2022/07/25 18:57:39;;;;;;;;;;;29.20;99.90;;;28.29;38.13;95079.72;10407647;28;1779;-68
2022/07/25 19:02:43;;;;;;;;;;;29.10;99.90;;;28.11;38.85;95079.81;10407833;28;1887;-68
2022/07/25 19:07:46;;;;;;;;;;;28.70;99.90;;;27.90;39.67;95094.53;10408139;28;1914;-74
2022/07/25 19:12:50;;;;;;;;;;;28.60;99.90;;;27.69;40.24;95089.09;10413860;28;1837;-72
2022/07/25 19:17:54;;;;;;;;;;;28.40;99.90;;;27.59;40.84;95085.16;10429847;28;1868;-69
2022/07/25 19:22:57;;;;;;;;;;;28.30;99.90;;;27.46;41.26;95090.31;10412539;28;1894;-69
2022/07/25 19:28:01;;;;;;;;;;;28.20;99.90;;;27.40;41.75;95100.19;10415856;28;1961;-69
2022/07/25 19:33:04;;;;;;;;;;;28.20;99.90;;;27.32;41.66;95093.13;10414854;28;1866;-70
2022/07/25 19:38:08;;;;;;;;;;;28.10;99.70;;;27.28;42.31;95086.81;10415763;28;1802;-70
2022/07/25 19:43:14;;;;;;;;;;;28.00;99.30;;;27.26;42.50;95080.91;10413085;28;1899;-69
2022/07/25 19:48:17;;;;;;;;;;;28.00;98.60;;;27.25;42.45;95090.38;10415084;28;1988;-68
2022/07/25 19:53:20;;;;;;;;;;;27.90;97.90;;;27.16;43.13;95117.59;10416710;28;1989;-70
2022/07/25 19:58:30;;;;;;;;;;;27.90;98.10;;;27.12;43.33;95127.84;10416291;28;1882;-69
2022/07/25 20:03:39;;;;;;;;;;;27.80;97.80;;;26.99;44.19;95110.09;10409058;28;1951;-70
2022/07/25 20:08:42;;;;;;;;;;;27.80;98.50;;;27.11;43.82;95115.25;10411310;28;1927;-69
2022/07/25 20:13:45;;;;;;;;;;;27.80;98.20;;;26.93;44.84;95132.56;10412238;28;1888;-69
2022/07/25 20:18:52;;;;;;;;;;;27.70;99.30;;;26.94;44.85;95144.38;10403772;28;1853;-68
2022/07/25 20:23:56;;;;;;;;;;;27.60;99.90;;;26.45;47.97;95158.91;10405285;28;2123;-70
2022/07/25 20:28:59;;;;;;;;;;;27.40;99.90;;;25.56;54.05;95173.03;10415766;28;1914;-68
2022/07/25 20:34:02;;;;;;;;;;;26.10;99.90;;;24.62;63.52;95209.22;10410107;28;1891;-70
2022/07/25 20:39:05;;;;;;;;;;;25.90;99.90;;;24.35;67.30;95235.97;10411661;28;2143;-70
2022/07/25 20:44:10;;;;;;;;;;;25.40;99.90;;;24.12;74.56;95203.13;10421085;28;1868;-70
2022/07/25 20:49:14;;;;;;;;;;;25.20;99.90;;;23.38;85.84;95203.69;10415707;28;1913;-72
2022/07/25 20:54:19;;;;;;;;;;;;;;;23.03;88.64;95201.19;10408591;28;1929;-68
2022/07/25 20:59:22;;;;;;;;;;;;;;;23.08;89.35;95242.00;10416449;28;1869;-69
2022/07/25 21:04:27;;;;;;;;;;;;;;;23.20;89.13;95285.66;10409822;28;1834;-69
2022/07/25 21:09:30;;;;;;;;;;;24.00;99.90;;;23.31;89.29;95282.31;10415399;28;2229;-73
2022/07/25 21:14:34;;;;;;;;;;;23.90;99.90;;;23.06;92.94;95299.13;10410052;28;1856;-75
2022/07/25 21:19:37;;;;;;;;;;;23.90;99.90;;;22.41;96.83;95375.75;10410690;28;1932;-74
2022/07/25 21:24:41;;;;;;;;;;;23.60;99.90;;;21.75;100.00;95404.69;10420509;28;1871;-69
2022/07/25 21:29:45;;;;;;;;;;;22.90;99.90;;;21.67;100.00;95421.31;10410766;28;1975;-68
2022/07/25 21:34:49;;;;;;;;;;;;;;;21.04;100.00;95495.75;10408740;28;1819;-68
2022/07/25 21:39:52;;;;;;;;;;;;;;;20.70;100.00;95476.06;10411547;28;1859;-68
2022/07/25 21:44:56;;;;;;;;;;;;;;;20.42;100.00;95421.38;10403012;28;1815;-70
2022/07/25 21:55:27;;;;;;;;;;;;;;;20.16;100.00;95495.44;10417343;28;1809;-70
2022/07/25 22:00:30;;;;;;;;;;;;;;;20.03;100.00;95532.03;10410767;28;1903;-69
2022/07/25 22:05:36;;;;;;;;;;;;;;;20.01;100.00;95577.16;10416903;28;1907;-69
2022/07/25 22:10:41;;;;;;;;;;;;;;;19.94;100.00;95570.34;10411153;28;1805;-69
2022/07/25 22:15:44;;;;;;;;;;;;;;;19.54;100.00;95552.94;10408676;28;1910;-69
2022/07/25 22:20:48;;;;;;;;;;;;;;;19.35;100.00;95592.38;10411061;28;1834;-70
2022/07/25 22:25:52;;;;;;;;;;;;;;;19.08;100.00;95609.25;10413930;28;1981;-71
2022/07/25 22:30:56;;;;;;;;;;;;;;;19.14;100.00;95625.06;10409311;28;2349;-69
2022/07/25 22:36:00;;;;;;;;;;;;;;;19.19;100.00;95629.53;10414676;28;2225;-69
2022/07/25 22:41:03;;;;;;;;;;;;;;;19.08;100.00;95603.81;10409939;28;2173;-70
2022/07/25 22:46:07;;;;;;;;;;;;;;;19.14;100.00;95578.75;10420111;28;1891;-70
2022/07/25 22:51:10;;;;;;;;;;;;;;;19.14;100.00;95595.09;10425336;28;1904;-73
2022/07/25 22:56:14;;;;;;;;;;;;;;;19.10;100.00;95617.91;10413875;28;1894;-70
2022/07/25 23:01:18;;;;;;;;;;;;;;;19.03;100.00;95628.53;10418007;28;1905;-70
2022/07/25 23:06:22;;;;;;;;;;;;;;;19.05;100.00;95596.31;10419523;28;1902;-70
2022/07/25 23:11:26;;;;;;;;;;;;;;;19.03;100.00;95604.03;10416161;28;1877;-68
2022/07/25 23:16:30;;;;;;;;;;;;;;;18.93;100.00;95616.09;10411018;28;1926;-70
2022/07/25 23:21:34;;;;;;;;;;;;;;;18.90;100.00;95636.63;10416852;28;1861;-70
2022/07/25 23:26:38;;;;;;;;;;;;;;;18.77;100.00;95675.78;10422751;28;1906;-70
2022/07/25 23:31:41;;;;;;;;;;;;;;;18.74;100.00;95670.19;10414005;28;1821;-69
2022/07/25 23:36:45;;;;;;;;;;;;;;;18.46;100.00;95659.72;10419116;28;1861;-70
2022/07/25 23:41:48;;;;;;;;;;;;;;;18.16;100.00;95688.78;10416038;28;1932;-68
2022/07/25 23:46:52;;;;;;;;;;;;;;;18.16;100.00;95667.03;10418243;28;1979;-68
2022/07/25 23:51:56;;;;;;;;;;;;;;;18.22;100.00;95649.41;10418913;28;1766;-67
2022/07/25 23:57:00;;;;;;;;;;;;;;;18.50;100.00;95649.75;10415511;28;1766;-68
